N188SF MYNN-MYBS
Flight info
| Callsign | N188SF |
|---|---|
| Flight time | 0h 30m |
| Altitude | 10500 |
| Route | DCT |
| Aircraft | BE20/L-SBGRY/S |
Departure
| Time | 2026-05-05 00:46 |
|---|---|
| Airport | Lynden Pindling International Airport (MYNN) |
Arrival
| Time | 2026-05-05 01:16 |
|---|---|
| Airport | South Bimini Airport (MYBS) |
| Time | Latitude | Longitude | Altitude | Speed | Heading |
|---|---|---|---|---|---|
| 2026-05-05 00:34 | 25.04471 | -77.46098 | 12 ft | 0 kts | 73° |
| 2026-05-05 00:39 | 25.04475 | -77.46110 | 12 ft | 8 kts | 234° |
| 2026-05-05 00:40 | 25.04443 | -77.46209 | 12 ft | 19 kts | 252° |
| 2026-05-05 00:40 | 25.04408 | -77.46353 | 12 ft | 19 kts | 292° |
| 2026-05-05 00:40 | 25.04458 | -77.46465 | 12 ft | 18 kts | 278° |
| 2026-05-05 00:40 | 25.04522 | -77.46585 | 13 ft | 22 kts | 314° |
| 2026-05-05 00:41 | 25.04649 | -77.46722 | 13 ft | 29 kts | 316° |
| 2026-05-05 00:41 | 25.04738 | -77.46817 | 13 ft | 0 kts | 315° |
| 2026-05-05 00:41 | 25.04754 | -77.46835 | 13 ft | 8 kts | 316° |
| 2026-05-05 00:41 | 25.04807 | -77.46906 | 13 ft | 15 kts | 276° |
| 2026-05-05 00:42 | 25.04796 | -77.46977 | 15 ft | 0 kts | 255° |
| 2026-05-05 00:44 | 25.04795 | -77.46980 | 15 ft | 2 kts | 254° |
| 2026-05-05 00:44 | 25.04793 | -77.46987 | 15 ft | 0 kts | 256° |
| 2026-05-05 00:44 | 25.04791 | -77.46996 | 15 ft | 6 kts | 255° |
| 2026-05-05 00:45 | 25.04732 | -77.47068 | 16 ft | 15 kts | 160° |
| 2026-05-05 00:45 | 25.04593 | -77.46920 | 16 ft | 55 kts | 135° |
| 2026-05-05 00:45 | 25.04159 | -77.46434 | 20 ft | 119 kts | 133° |
| 2026-05-05 00:45 | 25.03480 | -77.45679 | 182 ft | 156 kts | 142° |
| 2026-05-05 00:46 | 25.02392 | -77.45317 | 534 ft | 177 kts | 186° |
| 2026-05-05 00:46 | 25.01369 | -77.46071 | 969 ft | 189 kts | 234° |
| 2026-05-05 00:46 | 25.00880 | -77.47421 | 1362 ft | 198 kts | 257° |
| 2026-05-05 00:46 | 25.00810 | -77.48963 | 1699 ft | 208 kts | 274° |
| 2026-05-05 00:47 | 25.01121 | -77.50565 | 1818 ft | 217 kts | 291° |
| 2026-05-05 00:47 | 25.01869 | -77.51998 | 2111 ft | 216 kts | 310° |
| 2026-05-05 00:47 | 25.02977 | -77.53092 | 2415 ft | 213 kts | 329° |
| 2026-05-05 00:47 | 25.04154 | -77.54015 | 2703 ft | 209 kts | 308° |
| 2026-05-05 00:48 | 25.04798 | -77.55451 | 3022 ft | 210 kts | 291° |
| 2026-05-05 00:48 | 25.05286 | -77.56940 | 3476 ft | 204 kts | 290° |
| 2026-05-05 00:48 | 25.05772 | -77.58398 | 3900 ft | 203 kts | 291° |
| 2026-05-05 00:48 | 25.06292 | -77.59856 | 4276 ft | 204 kts | 292° |
| 2026-05-05 00:49 | 25.06832 | -77.61299 | 4650 ft | 204 kts | 292° |
| 2026-05-05 00:49 | 25.07384 | -77.62746 | 5025 ft | 205 kts | 292° |
| 2026-05-05 00:49 | 25.07943 | -77.64192 | 5397 ft | 206 kts | 292° |
| 2026-05-05 00:49 | 25.08508 | -77.65647 | 5775 ft | 206 kts | 291° |
| 2026-05-05 00:50 | 25.09072 | -77.67098 | 6150 ft | 205 kts | 291° |
| 2026-05-05 00:50 | 25.09634 | -77.68541 | 6527 ft | 203 kts | 291° |
| 2026-05-05 00:50 | 25.10190 | -77.69968 | 6916 ft | 203 kts | 292° |
| 2026-05-05 00:50 | 25.10747 | -77.71400 | 7282 ft | 203 kts | 291° |
| 2026-05-05 00:51 | 25.11305 | -77.72833 | 7653 ft | 204 kts | 291° |
| 2026-05-05 00:51 | 25.11863 | -77.74268 | 8026 ft | 204 kts | 291° |
| 2026-05-05 00:51 | 25.12422 | -77.75709 | 8401 ft | 204 kts | 291° |
| 2026-05-05 00:51 | 25.12983 | -77.77153 | 8776 ft | 205 kts | 291° |
| 2026-05-05 00:52 | 25.13544 | -77.78601 | 9149 ft | 206 kts | 291° |
| 2026-05-05 00:52 | 25.14108 | -77.80052 | 9520 ft | 206 kts | 291° |
| 2026-05-05 00:52 | 25.14673 | -77.81504 | 9904 ft | 206 kts | 290° |
| 2026-05-05 00:52 | 25.15236 | -77.82955 | 10280 ft | 206 kts | 290° |
| 2026-05-05 00:53 | 25.15803 | -77.84419 | 10495 ft | 213 kts | 290° |
| 2026-05-05 00:53 | 25.16402 | -77.85968 | 10505 ft | 224 kts | 290° |
| 2026-05-05 00:53 | 25.17027 | -77.87579 | 10512 ft | 231 kts | 290° |
| 2026-05-05 00:53 | 25.17668 | -77.89234 | 10510 ft | 237 kts | 290° |
| 2026-05-05 00:54 | 25.18324 | -77.90926 | 10507 ft | 240 kts | 290° |
| 2026-05-05 00:54 | 25.18983 | -77.92625 | 10510 ft | 242 kts | 290° |
| 2026-05-05 00:54 | 25.19645 | -77.94335 | 10509 ft | 243 kts | 290° |
| 2026-05-05 00:54 | 25.20309 | -77.96048 | 10509 ft | 243 kts | 290° |
| 2026-05-05 00:55 | 25.20966 | -77.97747 | 10507 ft | 244 kts | 290° |
| 2026-05-05 00:55 | 25.21631 | -77.99467 | 10509 ft | 244 kts | 290° |
| 2026-05-05 00:55 | 25.22297 | -78.01191 | 10509 ft | 244 kts | 290° |
| 2026-05-05 00:55 | 25.22962 | -78.02913 | 10510 ft | 244 kts | 290° |
| 2026-05-05 00:56 | 25.23628 | -78.04640 | 10510 ft | 244 kts | 290° |
| 2026-05-05 00:56 | 25.24293 | -78.06366 | 10510 ft | 244 kts | 290° |
| 2026-05-05 00:56 | 25.24959 | -78.08092 | 10510 ft | 244 kts | 290° |
| 2026-05-05 00:56 | 25.25624 | -78.09819 | 10508 ft | 244 kts | 290° |
| 2026-05-05 00:57 | 25.26290 | -78.11548 | 10509 ft | 244 kts | 290° |
| 2026-05-05 00:57 | 25.26954 | -78.13272 | 10509 ft | 244 kts | 290° |
| 2026-05-05 00:57 | 25.27620 | -78.15003 | 10509 ft | 244 kts | 290° |
| 2026-05-05 00:57 | 25.28285 | -78.16727 | 10509 ft | 244 kts | 290° |
| 2026-05-05 00:58 | 25.28951 | -78.18458 | 10509 ft | 244 kts | 290° |
| 2026-05-05 00:58 | 25.29617 | -78.20188 | 10509 ft | 245 kts | 290° |
| 2026-05-05 00:58 | 25.30282 | -78.21915 | 10509 ft | 244 kts | 290° |
| 2026-05-05 00:58 | 25.30947 | -78.23647 | 10509 ft | 244 kts | 290° |
| 2026-05-05 00:59 | 25.31610 | -78.25374 | 10509 ft | 244 kts | 290° |
| 2026-05-05 00:59 | 25.32274 | -78.27105 | 10509 ft | 244 kts | 290° |
| 2026-05-05 00:59 | 25.32936 | -78.28830 | 10509 ft | 244 kts | 290° |
| 2026-05-05 00:59 | 25.33592 | -78.30538 | 10509 ft | 244 kts | 290° |
| 2026-05-05 01:00 | 25.34263 | -78.32291 | 10509 ft | 244 kts | 290° |
| 2026-05-05 01:00 | 25.34917 | -78.33996 | 10509 ft | 244 kts | 290° |
| 2026-05-05 01:00 | 25.35580 | -78.35725 | 10509 ft | 244 kts | 290° |
| 2026-05-05 01:00 | 25.36242 | -78.37454 | 10509 ft | 244 kts | 290° |
| 2026-05-05 01:01 | 25.36905 | -78.39184 | 10509 ft | 244 kts | 290° |
| 2026-05-05 01:01 | 25.37576 | -78.40936 | 10509 ft | 244 kts | 290° |
| 2026-05-05 01:01 | 25.38237 | -78.42666 | 10509 ft | 244 kts | 290° |
| 2026-05-05 01:01 | 25.38890 | -78.44374 | 10509 ft | 244 kts | 290° |
| 2026-05-05 01:02 | 25.39551 | -78.46105 | 10509 ft | 244 kts | 290° |
| 2026-05-05 01:02 | 25.40213 | -78.47836 | 10509 ft | 244 kts | 290° |
| 2026-05-05 01:02 | 25.40873 | -78.49564 | 10509 ft | 244 kts | 290° |
| 2026-05-05 01:02 | 25.41534 | -78.51297 | 10509 ft | 244 kts | 290° |
| 2026-05-05 01:03 | 25.42195 | -78.53029 | 10509 ft | 244 kts | 290° |
| 2026-05-05 01:03 | 25.42855 | -78.54760 | 10509 ft | 244 kts | 290° |
| 2026-05-05 01:03 | 25.43516 | -78.56494 | 10509 ft | 244 kts | 290° |
| 2026-05-05 01:03 | 25.44175 | -78.58223 | 10509 ft | 245 kts | 290° |
| 2026-05-05 01:04 | 25.44843 | -78.59976 | 10311 ft | 251 kts | 290° |
| 2026-05-05 01:04 | 25.46222 | -78.63599 | 9767 ft | 258 kts | 290° |
| 2026-05-05 01:04 | 25.46925 | -78.65443 | 9495 ft | 260 kts | 291° |
| 2026-05-05 01:05 | 25.47629 | -78.67292 | 9223 ft | 261 kts | 291° |
| 2026-05-05 01:05 | 25.48334 | -78.69143 | 8950 ft | 261 kts | 291° |
| 2026-05-05 01:05 | 25.49039 | -78.70997 | 8676 ft | 261 kts | 291° |
| 2026-05-05 01:05 | 25.49744 | -78.72852 | 8401 ft | 261 kts | 291° |
| 2026-05-05 01:06 | 25.50448 | -78.74702 | 8127 ft | 260 kts | 291° |
| 2026-05-05 01:06 | 25.51148 | -78.76548 | 7852 ft | 260 kts | 291° |
| 2026-05-05 01:06 | 25.51850 | -78.78394 | 7579 ft | 260 kts | 291° |
| 2026-05-05 01:06 | 25.52549 | -78.80235 | 7302 ft | 259 kts | 291° |
| 2026-05-05 01:07 | 25.53245 | -78.82071 | 7027 ft | 258 kts | 291° |
| 2026-05-05 01:07 | 25.53938 | -78.83901 | 6752 ft | 258 kts | 291° |
| 2026-05-05 01:07 | 25.54631 | -78.85730 | 6469 ft | 257 kts | 291° |
| 2026-05-05 01:07 | 25.55321 | -78.87556 | 6201 ft | 256 kts | 291° |
| 2026-05-05 01:08 | 25.56007 | -78.89372 | 5926 ft | 256 kts | 292° |
| 2026-05-05 01:08 | 25.56695 | -78.91190 | 5650 ft | 256 kts | 292° |
| 2026-05-05 01:08 | 25.57381 | -78.93005 | 5371 ft | 256 kts | 292° |
| 2026-05-05 01:08 | 25.58068 | -78.94831 | 5100 ft | 257 kts | 292° |
| 2026-05-05 01:09 | 25.58757 | -78.96655 | 4831 ft | 257 kts | 292° |
| 2026-05-05 01:09 | 25.59444 | -78.98471 | 4550 ft | 256 kts | 292° |
| 2026-05-05 01:09 | 25.60122 | -79.00271 | 4279 ft | 257 kts | 292° |
| 2026-05-05 01:09 | 25.60820 | -79.02120 | 3996 ft | 257 kts | 292° |
| 2026-05-05 01:10 | 25.61498 | -79.03919 | 3728 ft | 258 kts | 292° |
| 2026-05-05 01:10 | 25.62192 | -79.05754 | 3453 ft | 259 kts | 293° |
| 2026-05-05 01:10 | 25.62884 | -79.07595 | 3179 ft | 259 kts | 293° |
| 2026-05-05 01:10 | 25.63577 | -79.09439 | 2904 ft | 260 kts | 293° |
| 2026-05-05 01:11 | 25.64274 | -79.11291 | 2630 ft | 260 kts | 293° |
| 2026-05-05 01:11 | 25.64971 | -79.13137 | 2357 ft | 261 kts | 293° |
| 2026-05-05 01:11 | 25.65862 | -79.14844 | 2080 ft | 255 kts | 311° |
| 2026-05-05 01:11 | 25.67071 | -79.16282 | 1806 ft | 255 kts | 316° |
| 2026-05-05 01:12 | 25.68310 | -79.17687 | 1533 ft | 255 kts | 316° |
| 2026-05-05 01:12 | 25.69530 | -79.19065 | 1503 ft | 246 kts | 316° |
| 2026-05-05 01:12 | 25.70715 | -79.20407 | 1499 ft | 242 kts | 316° |
| 2026-05-05 01:12 | 25.71885 | -79.21733 | 1498 ft | 239 kts | 316° |
| 2026-05-05 01:13 | 25.73021 | -79.23070 | 1488 ft | 234 kts | 308° |
| 2026-05-05 01:13 | 25.73700 | -79.24601 | 1482 ft | 213 kts | 291° |
| 2026-05-05 01:13 | 25.74162 | -79.26058 | 1536 ft | 188 kts | 288° |
| 2026-05-05 01:13 | 25.74407 | -79.27426 | 1385 ft | 178 kts | 270° |
| 2026-05-05 01:14 | 25.74186 | -79.28722 | 1300 ft | 168 kts | 244° |
| 2026-05-05 01:14 | 25.73495 | -79.29725 | 1137 ft | 161 kts | 214° |
| 2026-05-05 01:14 | 25.72579 | -79.30296 | 970 ft | 135 kts | 197° |
| 2026-05-05 01:14 | 25.71741 | -79.30521 | 833 ft | 119 kts | 178° |
| 2026-05-05 01:15 | 25.70967 | -79.30291 | 609 ft | 116 kts | 144° |
| 2026-05-05 01:15 | 25.70353 | -79.29730 | 412 ft | 112 kts | 124° |
| 2026-05-05 01:15 | 25.70072 | -79.28941 | 322 ft | 115 kts | 97° |
| 2026-05-05 01:15 | 25.70000 | -79.28050 | 149 ft | 116 kts | 92° |
| 2026-05-05 01:16 | 25.69997 | -79.27231 | 21 ft | 92 kts | 91° |
| 2026-05-05 01:16 | 25.69986 | -79.26787 | 13 ft | 9 kts | 95° |
| 2026-05-05 01:16 | 25.70001 | -79.26848 | 13 ft | 22 kts | 266° |
| 2026-05-05 01:16 | 25.70022 | -79.27011 | 12 ft | 19 kts | 341° |
| 2026-05-05 01:17 | 25.70098 | -79.27077 | 17 ft | 15 kts | 274° |
| 2026-05-05 01:17 | 25.70101 | -79.27178 | 18 ft | 9 kts | 291° |
| 2026-05-05 01:17 | 25.70108 | -79.27191 | 19 ft | 0 kts | 304° |
| 2026-05-05 01:18 | 25.70107 | -79.27191 | 19 ft | 0 kts | 304° |